Time;durP1;ratioP1;P1;durP2;ratioP2;P2;SDS_P1;SDS_P2;PMS_P1;PMS_P2;Temp;Humidity;BMP_temperature;BMP_pressure;BME280_temperature;BME280_humidity;BME280_pressure;Samples;Min_cycle;Max_cycle;Signal;HPM_P1;HPM_P2
2022/05/20 00:01:42;;;;;;;10.75;4.72;;;19.20;75.20;;;;;;5075573;28;20109;-77
2022/05/20 00:04:08;;;;;;;5.28;4.20;;;19.20;75.20;;;;;;5075500;28;20031;-77
2022/05/20 00:06:33;;;;;;;8.23;4.78;;;19.10;75.50;;;;;;5074554;28;20388;-77
2022/05/20 00:08:59;;;;;;;5.32;4.35;;;19.20;75.80;;;;;;5075765;28;20069;-77
2022/05/20 00:11:24;;;;;;;6.35;4.55;;;19.10;76.00;;;;;;5075393;28;20031;-78
2022/05/20 00:13:50;;;;;;;5.47;4.57;;;19.10;76.30;;;;;;5075586;28;20030;-77
2022/05/20 00:16:15;;;;;;;8.23;4.75;;;19.00;76.60;;;;;;5075729;28;20028;-77
2022/05/20 00:18:42;;;;;;;7.68;4.68;;;18.90;77.10;;;;;;5075550;28;20020;-78
2022/05/20 00:21:08;;;;;;;9.55;4.85;;;18.80;77.80;;;;;;5075248;28;20068;-78
2022/05/20 00:23:34;;;;;;;14.30;5.25;;;18.70;76.80;;;;;;5075029;28;20024;-77
2022/05/20 00:26:00;;;;;;;10.75;4.95;;;18.60;77.20;;;;;;5075073;28;20048;-78
2022/05/20 00:28:28;;;;;;;13.05;4.90;;;18.50;77.70;;;;;;5075041;28;20028;-77
2022/05/20 00:30:57;;;;;;;10.05;5.57;;;18.50;78.40;;;;;;5075106;28;20036;-78
2022/05/20 00:33:24;;;;;;;8.57;4.63;;;18.50;78.60;;;;;;5074692;28;20024;-77
2022/05/20 00:35:50;;;;;;;8.90;4.47;;;18.40;78.30;;;;;;5075291;28;20073;-78
2022/05/20 00:38:16;;;;;;;7.70;4.88;;;18.40;78.30;;;;;;5092081;28;20020;-77
2022/05/20 00:40:43;;;;;;;7.68;4.97;;;18.40;78.10;;;;;;5075145;28;20380;-78
2022/05/20 00:43:24;;;;;;;11.48;5.13;;;18.40;78.30;;;;;;5074852;28;20017;-77
2022/05/20 00:45:50;;;;;;;9.88;5.55;;;18.30;78.20;;;;;;5093064;28;20107;-77
2022/05/20 00:48:16;;;;;;;7.15;4.97;;;18.20;78.30;;;;;;5074675;28;20024;-78
2022/05/20 00:50:46;;;;;;;9.13;4.57;;;18.20;78.50;;;;;;5074857;28;20039;-78
2022/05/20 00:53:16;;;;;;;10.13;4.90;;;18.20;78.80;;;;;;5074796;28;20028;-78
2022/05/20 00:55:43;;;;;;;10.98;4.65;;;18.20;79.10;;;;;;5075008;28;20126;-78
2022/05/20 00:58:17;;;;;;;8.60;4.72;;;18.20;79.30;;;;;;5074903;28;20161;-77
2022/05/20 01:00:48;;;;;;;7.78;4.68;;;18.20;79.40;;;;;;5074596;28;20384;-78
2022/05/20 01:03:16;;;;;;;11.27;5.15;;;18.20;79.60;;;;;;5074824;28;20062;-76
2022/05/20 01:05:45;;;;;;;5.70;4.80;;;18.20;79.70;;;;;;5074507;28;20088;-76
2022/05/20 01:08:14;;;;;;;6.18;4.95;;;18.20;79.80;;;;;;5074763;28;20407;-77
2022/05/20 01:10:40;;;;;;;5.40;4.13;;;18.20;79.60;;;;;;5074575;28;20039;-76
2022/05/20 01:13:06;;;;;;;8.18;5.00;;;18.30;79.40;;;;;;5074604;28;20020;-77
2022/05/20 01:15:32;;;;;;;12.15;4.90;;;18.30;79.00;;;;;;5074819;28;20135;-77
2022/05/20 01:17:58;;;;;;;8.07;4.40;;;18.30;78.60;;;;;;5076533;28;20515;-77
2022/05/20 01:20:30;;;;;;;7.03;4.53;;;18.30;78.50;;;;;;5078509;28;20040;-77
2022/05/20 01:23:01;;;;;;;11.07;4.60;;;18.40;78.40;;;;;;5078451;28;20028;-76
2022/05/20 01:25:29;;;;;;;7.22;4.30;;;18.30;78.30;;;;;;5078180;28;20119;-76
2022/05/20 01:27:56;;;;;;;7.57;4.68;;;18.40;78.20;;;;;;5078536;28;20078;-75
2022/05/20 01:30:23;;;;;;;5.93;4.57;;;18.40;77.90;;;;;;5078080;28;20036;-76
2022/05/20 01:32:49;;;;;;;9.45;5.35;;;18.40;77.80;;;;;;5078401;28;20023;-76
2022/05/20 01:35:47;;;;;;;8.77;3.97;;;18.40;77.50;;;;;;5077970;28;20468;-75
2022/05/20 01:38:13;;;;;;;8.40;3.63;;;18.40;77.30;;;;;;5065280;28;20024;-75
2022/05/20 01:40:41;;;;;;;8.75;4.25;;;18.40;76.00;;;;;;5078384;28;20051;-76
2022/05/20 01:43:27;;;;;;;8.73;4.60;;;18.40;75.00;;;;;;5081950;28;20091;-75
2022/05/20 01:46:23;;;;;;;6.85;3.70;;;18.50;73.60;;;;;;5073881;28;20494;-76
2022/05/20 01:49:25;;;;;;;7.18;3.60;;;18.60;72.80;;;;;;5078438;28;20024;-76
2022/05/20 01:52:22;;;;;;;5.50;3.42;;;18.70;72.40;;;;;;5078165;28;20073;-76
2022/05/20 01:54:58;;;;;;;7.70;3.03;;;18.80;71.70;;;;;;5078070;28;20028;-76
2022/05/20 01:57:39;;;;;;;8.07;3.15;;;18.80;71.50;;;;;;5077795;28;20028;-76
2022/05/20 02:00:20;;;;;;;7.72;3.38;;;18.90;70.40;;;;;;5077577;28;20468;-76
2022/05/20 02:02:49;;;;;;;4.85;3.05;;;18.90;70.10;;;;;;5077787;28;20165;-76
2022/05/20 02:05:32;;;;;;;6.80;3.03;;;19.00;69.50;;;;;;5077774;28;20024;-76
2022/05/20 02:08:19;;;;;;;5.53;3.08;;;19.00;69.10;;;;;;5077854;28;20024;-76
2022/05/20 02:10:51;;;;;;;11.32;3.72;;;19.10;68.20;;;;;;5077181;28;20032;-75
2022/05/20 02:13:18;;;;;;;5.75;2.90;;;19.20;67.90;;;;;;5077525;28;20369;-75
2022/05/20 02:15:53;;;;;;;5.35;2.90;;;19.20;67.70;;;;;;5077723;28;20024;-76
2022/05/20 02:18:29;;;;;;;5.53;2.97;;;19.30;67.30;;;;;;5077243;28;20069;-76
2022/05/20 02:21:00;;;;;;;6.57;2.75;;;19.30;67.10;;;;;;5077185;28;20117;-75
2022/05/20 02:23:31;;;;;;;4.72;2.65;;;19.30;67.40;;;;;;5077411;28;20044;-76
2022/05/20 02:26:03;;;;;;;4.32;2.42;;;19.30;65.80;;;;;;5077525;28;20035;-75
2022/05/20 02:28:36;;;;;;;3.55;2.53;;;19.40;65.90;;;;;;5077086;28;20046;-76
2022/05/20 02:31:04;;;;;;;7.35;2.92;;;19.40;66.20;;;;;;5078511;28;20056;-75
2022/05/20 02:33:31;;;;;;;8.25;2.70;;;19.40;66.30;;;;;;5080306;28;20048;-76
2022/05/20 02:36:22;;;;;;;5.10;2.40;;;19.40;66.40;;;;;;5077840;28;20028;-76
2022/05/20 02:38:48;;;;;;;4.88;2.63;;;19.40;66.30;;;;;;5067754;28;20032;-76
2022/05/20 02:41:13;;;;;;;4.43;2.75;;;19.40;66.20;;;;;;5077020;28;20020;-76
2022/05/20 02:43:39;;;;;;;7.65;3.42;;;19.40;66.20;;;;;;5076861;28;20114;-76
2022/05/20 02:46:05;;;;;;;4.85;3.03;;;19.30;66.30;;;;;;5076967;28;20016;-75
2022/05/20 02:48:31;;;;;;;7.28;3.15;;;19.40;66.40;;;;;;5076571;28;20062;-76
2022/05/20 02:50:58;;;;;;;5.07;3.10;;;19.40;66.20;;;;;;5076330;28;20071;-75
2022/05/20 02:53:24;;;;;;;4.93;3.00;;;19.30;66.00;;;;;;5076753;28;20400;-76
2022/05/20 02:55:50;;;;;;;9.27;2.70;;;19.30;65.40;;;;;;5076371;28;20024;-75
2022/05/20 03:04:10;;;;;;;9.52;2.88;;;19.40;64.70;;;;;;5094890;28;20081;-76
2022/05/20 03:06:49;;;;;;;6.40;2.50;;;19.40;64.70;;;;;;5076548;28;20110;-76
2022/05/20 03:09:21;;;;;;;4.35;2.60;;;19.40;64.20;;;;;;5076567;28;20032;-75
2022/05/20 03:11:47;;;;;;;5.85;2.53;;;19.50;64.40;;;;;;5076233;28;20039;-76
2022/05/20 03:14:15;;;;;;;5.97;2.70;;;19.50;64.50;;;;;;5076311;28;20391;-76
2022/05/20 03:16:41;;;;;;;3.83;3.05;;;19.50;64.80;;;;;;5076052;28;20059;-76
2022/05/20 03:19:08;;;;;;;5.35;2.47;;;19.40;64.40;;;;;;5076055;28;20062;-75
2022/05/20 03:21:34;;;;;;;4.65;2.50;;;19.40;64.60;;;;;;5076069;28;20050;-76
2022/05/20 03:24:01;;;;;;;4.50;2.50;;;19.40;64.80;;;;;;5076271;28;20020;-75
2022/05/20 03:26:28;;;;;;;4.68;2.72;;;19.30;65.20;;;;;;5076163;28;20035;-75
2022/05/20 03:28:54;;;;;;;3.17;2.00;;;19.30;65.20;;;;;;5075803;28;20032;-76
2022/05/20 03:31:20;;;;;;;5.15;2.60;;;19.30;65.40;;;;;;5075652;28;20032;-76
2022/05/20 03:33:46;;;;;;;10.70;2.72;;;19.30;65.70;;;;;;5075595;28;20634;-76
2022/05/20 03:36:12;;;;;;;3.50;2.45;;;19.20;66.00;;;;;;5075959;28;20027;-76
2022/05/20 03:38:38;;;;;;;4.70;2.47;;;19.20;66.00;;;;;;5076011;28;20031;-76
2022/05/20 03:41:05;;;;;;;5.07;2.53;;;19.20;66.00;;;;;;5093782;28;20028;-76
2022/05/20 03:43:30;;;;;;;4.97;2.67;;;19.10;66.30;;;;;;5075476;28;20028;-76
2022/05/20 03:45:57;;;;;;;6.85;3.05;;;19.00;66.40;;;;;;5075528;28;20388;-75
2022/05/20 03:48:22;;;;;;;6.10;2.70;;;19.10;66.50;;;;;;5075390;28;20047;-76
2022/05/20 03:50:48;;;;;;;4.50;2.97;;;19.10;66.80;;;;;;5093652;28;20557;-76
2022/05/20 03:53:14;;;;;;;5.55;2.55;;;19.00;67.10;;;;;;5075654;28;20169;-76
2022/05/20 03:55:40;;;;;;;5.68;2.80;;;19.10;67.00;;;;;;5075467;28;20073;-76
2022/05/20 03:58:05;;;;;;;7.70;2.33;;;19.00;67.10;;;;;;5075405;28;20028;-76
2022/05/20 04:01:56;;;;;;;6.53;2.33;;;19.00;67.60;;;;;;5075206;28;20028;-76
2022/05/20 04:03:18;;;;;;;4.05;2.47;;;18.90;68.00;;;;;;5093082;28;20089;-75
2022/05/20 04:05:44;;;;;;;2.60;2.40;;;18.90;68.20;;;;;;5075331;28;20028;-75
2022/05/20 04:08:10;;;;;;;5.60;2.65;;;18.90;68.50;;;;;;5075029;28;20129;-75
2022/05/20 04:10:35;;;;;;;3.92;3.10;;;18.80;68.70;;;;;;5074984;28;20115;-75
2022/05/20 04:13:01;;;;;;;4.65;3.20;;;18.80;69.00;;;;;;5075124;28;20024;-75
2022/05/20 04:15:26;;;;;;;5.47;3.30;;;18.80;69.10;;;;;;5075338;28;20455;-75
2022/05/20 04:17:52;;;;;;;5.88;3.00;;;18.80;69.30;;;;;;5075138;28;20016;-75
2022/05/20 04:20:17;;;;;;;4.72;2.65;;;18.80;68.80;;;;;;5075199;28;20020;-75
2022/05/20 04:22:44;;;;;;;6.25;2.92;;;18.80;69.40;;;;;;5075161;28;20032;-75
2022/05/20 04:25:12;;;;;;;10.23;3.58;;;18.80;69.40;;;;;;5074997;28;20023;-75
2022/05/20 04:27:38;;;;;;;13.15;4.22;;;18.80;69.30;;;;;;5074699;28;20097;-75
2022/05/20 04:30:05;;;;;;;7.72;3.40;;;18.90;69.20;;;;;;5075157;28;20020;-75
2022/05/20 04:32:30;;;;;;;12.38;3.33;;;18.80;69.30;;;;;;5075179;28;20077;-75
2022/05/20 04:34:56;;;;;;;9.88;3.58;;;18.90;69.30;;;;;;5075040;28;20020;-75
2022/05/20 04:37:23;;;;;;;9.35;3.00;;;18.90;69.00;;;;;;5075122;28;20043;-75
2022/05/20 04:39:49;;;;;;;4.90;3.03;;;18.90;69.10;;;;;;5075118;28;20027;-75
2022/05/20 04:47:43;;;;;;;3.78;2.90;;;19.30;73.00;;;;;;5093148;28;20384;-81
2022/05/20 04:50:09;;;;;;;5.00;2.75;;;19.40;71.80;;;;;;5074459;28;20032;-81
2022/05/20 04:52:35;;;;;;;6.00;2.70;;;19.60;70.90;;;;;;5075938;28;20020;-82
2022/05/20 04:55:02;;;;;;;6.53;2.97;;;19.70;69.90;;;;;;5079050;28;20035;-82
2022/05/20 04:57:33;;;;;;;12.65;2.53;;;19.90;67.20;;;;;;5078943;28;20024;-83
2022/05/20 05:00:08;;;;;;;3.38;2.63;;;20.00;64.50;;;;;;5078794;28;20494;-83
2022/05/20 05:02:34;;;;;;;3.78;2.50;;;20.00;66.00;;;;;;5078718;28;20085;-81
2022/05/20 05:05:01;;;;;;;10.82;2.92;;;20.10;64.90;;;;;;5078666;28;20039;-81
2022/05/20 05:07:26;;;;;;;4.30;2.75;;;20.20;64.50;;;;;;5095857;28;20085;-81
2022/05/20 05:09:53;;;;;;;7.00;2.63;;;20.30;65.40;;;;;;5078901;28;20024;-76
2022/05/20 05:12:19;;;;;;;7.65;2.90;;;20.30;64.10;;;;;;5078773;28;20030;-81
2022/05/20 05:14:50;;;;;;;6.00;2.75;;;20.40;63.90;;;;;;5078682;28;20104;-76
2022/05/20 05:20:10;;;;;;;6.15;3.13;;;20.50;63.70;;;;;;5096144;28;20054;-80
2022/05/20 05:22:37;;;;;;;5.00;2.70;;;20.50;63.20;;;;;;5078477;28;20123;-80
2022/05/20 05:25:04;;;;;;;5.65;2.60;;;20.60;63.40;;;;;;5078493;28;20135;-79
2022/05/20 05:27:30;;;;;;;5.07;3.08;;;20.70;63.10;;;;;;5078037;28;20073;-80
2022/05/20 05:29:56;;;;;;;5.30;2.92;;;20.90;62.00;;;;;;5078066;28;20020;-80
2022/05/20 05:32:21;;;;;;;6.00;2.58;;;21.10;61.40;;;;;;5080833;28;20024;-78
2022/05/20 05:34:47;;;;;;;7.40;2.78;;;21.20;60.90;;;;;;5078033;28;20464;-82
2022/05/20 05:37:13;;;;;;;7.55;2.90;;;21.30;61.40;;;;;;5078117;28;20032;-78
2022/05/20 05:39:39;;;;;;;9.25;3.33;;;21.30;61.30;;;;;;5096054;28;20035;-76
2022/05/20 05:42:05;;;;;;;4.55;2.70;;;21.40;61.10;;;;;;5077772;28;20111;-82
2022/05/20 05:44:30;;;;;;;6.05;3.05;;;21.40;61.30;;;;;;5078030;28;20016;-77
2022/05/20 05:46:56;;;;;;;6.40;2.67;;;21.30;61.40;;;;;;5078417;28;20020;-78
2022/05/20 05:49:22;;;;;;;6.22;3.47;;;21.40;61.40;;;;;;5095720;28;20024;-82
2022/05/20 05:51:48;;;;;;;4.60;2.92;;;21.40;61.00;;;;;;5089373;28;20099;-83
2022/05/20 05:54:14;;;;;;;5.13;2.78;;;21.40;61.10;;;;;;5099398;28;20024;-83
2022/05/20 05:56:39;;;;;;;5.30;2.63;;;21.50;60.40;;;;;;5088352;28;20031;-83
2022/05/20 05:59:05;;;;;;;5.50;2.60;;;21.60;60.60;;;;;;5080992;28;20058;-77
2022/05/20 06:01:31;;;;;;;5.18;3.15;;;21.80;60.50;;;;;;5077682;28;20031;-78
2022/05/20 06:03:57;;;;;;;3.08;2.60;;;21.90;60.30;;;;;;5077686;28;20123;-84
2022/05/20 06:06:22;;;;;;;2.90;2.20;;;21.90;60.10;;;;;;5077587;28;20031;-84
2022/05/20 06:08:48;;;;;;;5.10;2.67;;;21.90;59.70;;;;;;5077668;28;20028;-82
2022/05/20 06:11:14;;;;;;;6.00;2.88;;;22.00;59.60;;;;;;5077290;28;20039;-84
2022/05/20 06:13:40;;;;;;;5.80;2.63;;;22.20;59.10;;;;;;5076800;28;20392;-81
2022/05/20 06:16:06;;;;;;;8.20;3.10;;;22.30;58.30;;;;;;5076846;28;20020;-80
2022/05/20 06:18:31;;;;;;;4.78;2.83;;;22.40;58.10;;;;;;5077702;28;20016;-80
2022/05/20 06:20:58;;;;;;;3.17;2.35;;;22.60;58.20;;;;;;5077707;28;20044;-82
2022/05/20 06:23:23;;;;;;;5.90;2.85;;;22.60;57.30;;;;;;5078338;28;20023;-78
2022/05/20 06:25:49;;;;;;;6.30;2.53;;;22.80;57.40;;;;;;5083425;28;20032;-81
2022/05/20 06:28:18;;;;;;;4.18;2.50;;;22.90;57.00;;;;;;5095067;28;20031;-80
2022/05/20 06:30:44;;;;;;;4.45;2.60;;;23.00;56.90;;;;;;5077113;28;20055;-80
2022/05/20 06:33:11;;;;;;;5.68;2.95;;;23.10;56.90;;;;;;5076891;28;20115;-80
2022/05/20 06:41:06;;;;;;;5.07;2.72;;;23.40;56.80;;;;;;5095372;28;20032;-78
2022/05/20 06:43:32;;;;;;;4.40;2.95;;;23.50;56.50;;;;;;5076847;28;20028;-77
2022/05/20 06:46:01;;;;;;;6.68;3.15;;;23.60;56.10;;;;;;5076748;28;20024;-75
2022/05/20 06:48:38;;;;;;;9.23;2.90;;;23.80;53.50;;;;;;5076323;28;20020;-76
2022/05/20 06:51:09;;;;;;;7.55;3.08;;;24.00;53.60;;;;;;5076054;28;20038;-77
2022/05/20 06:53:34;;;;;;;6.10;3.17;;;24.10;52.90;;;;;;5076460;28;20494;-77
2022/05/20 06:56:00;;;;;;;9.82;3.65;;;24.20;51.90;;;;;;5076319;28;20032;-75
2022/05/20 06:58:27;;;;;;;5.90;3.38;;;24.10;52.50;;;;;;5076447;28;20020;-76
2022/05/20 07:00:53;;;;;;;9.68;3.75;;;24.20;52.50;;;;;;5094676;28;20125;-77
2022/05/20 07:03:21;;;;;;;7.35;3.33;;;24.30;51.50;;;;;;5094557;28;20058;-76
2022/05/20 07:05:48;;;;;;;7.93;3.78;;;24.30;52.60;;;;;;5076293;28;20426;-77
2022/05/20 07:08:14;;;;;;;8.50;3.38;;;24.30;51.00;;;;;;5076195;28;20464;-78
2022/05/20 07:10:40;;;;;;;6.82;3.40;;;24.40;51.20;;;;;;5079324;28;20055;-78
2022/05/20 07:13:07;;;;;;;8.45;3.20;;;24.30;51.60;;;;;;5078016;28;20017;-78
2022/05/20 07:15:32;;;;;;;9.15;3.92;;;24.40;52.20;;;;;;5075495;28;20044;-79
2022/05/20 07:17:58;;;;;;;7.25;3.30;;;24.50;51.20;;;;;;5059753;28;20032;-78
2022/05/20 07:20:24;;;;;;;7.40;3.60;;;24.50;50.60;;;;;;5092897;28;20052;-78
2022/05/20 07:22:50;;;;;;;5.20;3.22;;;24.50;51.10;;;;;;5059335;28;20065;-80
2022/05/20 07:25:16;;;;;;;10.50;3.53;;;24.60;50.90;;;;;;5074956;28;20028;-79
2022/05/20 07:27:42;;;;;;;5.43;3.10;;;24.60;51.40;;;;;;5075973;28;20051;-79
2022/05/20 07:30:09;;;;;;;11.63;3.85;;;24.70;50.90;;;;;;5075625;28;20122;-78
2022/05/20 07:32:34;;;;;;;7.38;3.30;;;24.80;50.90;;;;;;5075836;28;20096;-78
2022/05/20 07:35:00;;;;;;;11.23;3.40;;;24.90;49.20;;;;;;5076258;28;20531;-78
2022/05/20 07:37:27;;;;;;;6.38;3.08;;;25.00;49.60;;;;;;5076006;28;20020;-79
2022/05/20 07:39:52;;;;;;;10.55;3.45;;;25.00;47.90;;;;;;5075727;28;20078;-77
2022/05/20 07:42:18;;;;;;;6.88;3.38;;;25.10;49.00;;;;;;5075399;28;20074;-78
2022/05/20 07:44:44;;;;;;;14.25;3.50;;;25.10;47.40;;;;;;5075737;28;20020;-78
2022/05/20 07:47:10;;;;;;;8.88;3.67;;;25.20;46.70;;;;;;5093863;28;20032;-79
2022/05/20 07:49:37;;;;;;;10.35;3.22;;;25.30;46.70;;;;;;5075513;28;20026;-78
2022/05/20 07:55:08;;;;;;;5.10;3.63;;;25.30;46.70;;;;;;5082261;28;20131;-78
2022/05/20 07:57:43;;;;;;;5.03;3.30;;;25.40;46.00;;;;;;5055089;28;20024;-79
2022/05/20 08:00:12;;;;;;;7.55;3.40;;;25.40;46.70;;;;;;5055474;28;20025;-78
2022/05/20 08:02:41;;;;;;;11.70;4.10;;;25.50;45.90;;;;;;5038901;28;20489;-78
2022/05/20 08:05:09;;;;;;;8.57;3.40;;;25.70;45.30;;;;;;5072937;28;20039;-78
2022/05/20 08:07:42;;;;;;;5.60;3.40;;;25.80;44.80;;;;;;5054411;28;20028;-79
2022/05/20 08:10:16;;;;;;;8.03;3.33;;;25.90;44.90;;;;;;5073021;28;20030;-78
2022/05/20 08:12:42;;;;;;;6.05;3.35;;;25.90;43.80;;;;;;5055225;28;20302;-78
2022/05/20 08:15:09;;;;;;;7.22;3.40;;;25.90;43.90;;;;;;5055353;28;20055;-79
2022/05/20 08:17:40;;;;;;;7.57;4.18;;;26.00;44.80;;;;;;5072843;28;20028;-79
2022/05/20 08:20:09;;;;;;;7.47;3.50;;;26.00;42.70;;;;;;5054753;28;20027;-78
2022/05/20 08:22:36;;;;;;;7.80;3.90;;;26.00;43.60;;;;;;5057354;28;20048;-78
2022/05/20 08:25:02;;;;;;;6.53;3.60;;;26.00;43.30;;;;;;5074986;28;20142;-78
2022/05/20 08:27:30;;;;;;;8.75;4.13;;;25.90;44.40;;;;;;5074183;28;20490;-79
2022/05/20 08:29:56;;;;;;;6.93;3.40;;;26.00;44.30;;;;;;5074696;28;20028;-79
2022/05/20 08:32:22;;;;;;;7.35;3.92;;;26.00;44.50;;;;;;5093241;28;20032;-79
2022/05/20 08:34:48;;;;;;;11.27;3.60;;;26.10;44.50;;;;;;5074492;28;20366;-79
2022/05/20 08:37:17;;;;;;;9.52;3.97;;;26.10;42.00;;;;;;5093003;28;20441;-79
2022/05/20 08:39:43;;;;;;;7.13;3.45;;;26.20;44.40;;;;;;5074523;28;20017;-79
2022/05/20 08:42:22;;;;;;;10.57;3.88;;;26.30;42.40;;;;;;5074751;28;20024;-79
2022/05/20 08:44:48;;;;;;;8.65;3.55;;;26.30;43.50;;;;;;5074673;28;20028;-78
2022/05/20 08:47:22;;;;;;;9.05;3.38;;;26.30;40.70;;;;;;5074706;28;20508;-79
2022/05/20 08:49:54;;;;;;;6.97;3.28;;;26.40;39.90;;;;;;5092291;28;20063;-79
2022/05/20 08:52:20;;;;;;;8.98;3.50;;;26.40;39.10;;;;;;5074608;28;20043;-79
2022/05/20 08:54:46;;;;;;;11.15;3.38;;;26.50;39.00;;;;;;5074052;28;20016;-78
2022/05/20 08:57:25;;;;;;;8.63;3.40;;;26.60;40.30;;;;;;5074298;28;20454;-79
2022/05/20 08:59:52;;;;;;;8.85;3.75;;;26.70;40.80;;;;;;5074657;28;20052;-78
2022/05/20 09:02:17;;;;;;;10.05;3.72;;;26.70;39.70;;;;;;5074965;28;20388;-78
2022/05/20 09:04:43;;;;;;;7.82;3.33;;;26.70;39.00;;;;;;5072864;28;20031;-78
2022/05/20 09:07:14;;;;;;;9.35;3.17;;;26.70;38.40;;;;;;5075082;28;20468;-79
2022/05/20 09:09:48;;;;;;;6.68;3.38;;;26.70;37.30;;;;;;5074473;28;20016;-79
2022/05/20 09:12:43;;;;;;;9.75;3.10;;;26.70;37.00;;;;;;5074354;28;20116;-79
2022/05/20 09:18:17;;;;;;;4.68;3.30;;;26.70;38.10;;;;;;5091416;28;20051;-79
2022/05/20 09:20:46;;;;;;;4.97;2.95;;;26.90;38.40;;;;;;5070056;28;20434;-80
2022/05/20 09:23:15;;;;;;;6.65;3.10;;;27.00;38.80;;;;;;5054117;28;20081;-79
2022/05/20 09:26:09;;;;;;;10.43;3.17;;;27.10;38.80;;;;;;5054123;28;20074;-79
2022/05/20 09:28:47;;;;;;;4.07;2.90;;;27.10;39.50;;;;;;5054003;28;20369;-78
2022/05/20 09:31:34;;;;;;;7.18;3.65;;;27.20;38.40;;;;;;5053737;28;20538;-78
2022/05/20 09:34:08;;;;;;;7.88;3.60;;;27.30;38.90;;;;;;5070818;28;20025;-79
2022/05/20 09:36:51;;;;;;;7.88;2.85;;;27.30;38.20;;;;;;5053952;28;20021;-79
2022/05/20 09:39:28;;;;;;;6.05;3.30;;;27.50;37.40;;;;;;5074067;28;20381;-79
2022/05/20 09:41:56;;;;;;;9.38;3.33;;;27.60;37.40;;;;;;5057565;28;20021;-71
2022/05/20 09:44:31;;;;;;;11.82;3.38;;;27.70;35.80;;;;;;5075582;28;20024;-72
2022/05/20 09:47:23;;;;;;;8.73;3.85;;;27.60;34.70;;;;;;5057170;28;20418;-71
2022/05/20 09:49:54;;;;;;;6.25;2.55;;;27.60;34.90;;;;;;5057650;28;20032;-73
2022/05/20 09:52:26;;;;;;;5.10;2.97;;;27.60;35.00;;;;;;5057689;28;19912;-75
2022/05/20 09:55:23;;;;;;;7.20;3.35;;;27.80;37.20;;;;;;5057345;28;20104;-72
2022/05/20 09:57:49;;;;;;;5.72;3.38;;;27.80;35.90;;;;;;5053282;28;20037;-72
2022/05/20 10:00:28;;;;;;;6.15;4.10;;;27.80;37.80;;;;;;5057106;28;20544;-71
2022/05/20 10:03:06;;;;;;;6.40;3.15;;;28.00;35.70;;;;;;5056863;28;20025;-72
2022/05/20 10:05:59;;;;;;;3.75;2.90;;;28.00;35.40;;;;;;5057051;28;20074;-73
2022/05/20 10:08:29;;;;;;;6.65;2.95;;;28.10;34.60;;;;;;5075155;28;20047;-72
2022/05/20 10:11:20;;;;;;;8.38;3.58;;;28.00;33.90;;;;;;5056825;28;20040;-82
2022/05/20 10:13:53;;;;;;;9.57;2.70;;;28.10;33.50;;;;;;5056754;28;20052;-76
2022/05/20 10:16:40;;;;;;;7.70;3.70;;;28.20;33.50;;;;;;5056805;28;20101;-73
2022/05/20 10:19:48;;;;;;;9.25;3.33;;;28.40;34.10;;;;;;5075245;28;20131;-82
2022/05/20 10:22:47;;;;;;;7.00;3.00;;;28.60;32.50;;;;;;5091331;28;20053;-73
2022/05/20 10:25:31;;;;;;;11.90;3.30;;;28.70;33.80;;;;;;5076929;28;20077;-75
2022/05/20 10:32:34;;;;;;;7.47;3.10;;;29.00;32.40;;;;;;5076941;28;20021;-77
2022/05/20 10:33:52;;;;;;;5.95;3.28;;;29.10;32.30;;;;;;5096039;28;20089;-74
2022/05/20 10:36:32;;;;;;;8.00;3.60;;;29.20;32.90;;;;;;5077177;28;20028;-75
2022/05/20 10:39:16;;;;;;;9.52;3.00;;;29.20;31.50;;;;;;5077585;28;20112;-74
2022/05/20 10:42:03;;;;;;;7.80;3.20;;;29.30;30.50;;;;;;5077879;28;20408;-73
2022/05/20 10:51:08;;;;;;;10.10;3.97;;;29.40;31.20;;;;;;5093997;28;20035;-74
2022/05/20 10:54:06;;;;;;;7.53;3.25;;;29.40;30.50;;;;;;5044811;28;20036;-74
2022/05/20 10:57:05;;;;;;;7.93;2.80;;;29.80;31.30;;;;;;5076627;28;20107;-74
2022/05/20 10:59:43;;;;;;;8.50;3.00;;;30.20;29.20;;;;;;5076070;28;20028;-75
2022/05/20 11:02:33;;;;;;;8.25;3.08;;;30.50;29.10;;;;;;5076388;28;20020;-78
2022/05/20 11:05:27;;;;;;;5.35;3.00;;;30.40;29.80;;;;;;5076062;28;20028;-80
2022/05/20 11:08:04;;;;;;;8.48;2.95;;;30.40;29.30;;;;;;5076492;28;20372;-83
2022/05/20 11:10:40;;;;;;;6.20;2.55;;;30.40;32.00;;;;;;5076339;28;20028;-74
2022/05/20 11:13:24;;;;;;;11.65;2.83;;;30.10;29.90;;;;;;5076399;28;20020;-80
2022/05/20 11:16:01;;;;;;;5.22;2.70;;;30.00;30.40;;;;;;5069086;28;20024;-77
2022/05/20 11:18:42;;;;;;;5.53;2.67;;;30.10;29.60;;;;;;5072659;28;20024;-74
2022/05/20 11:21:41;;;;;;;5.90;2.72;;;30.50;29.40;;;;;;5074591;28;20072;-77
2022/05/20 11:24:37;;;;;;;6.75;3.08;;;30.90;29.70;;;;;;5076115;28;20016;-79
2022/05/20 11:27:06;;;;;;;6.20;3.35;;;30.90;25.50;;;;;;5075920;28;20085;-75
2022/05/20 11:30:10;;;;;;;8.02;2.40;;;30.90;23.40;;;;;;5075594;28;20028;-77
2022/05/20 11:33:05;;;;;;;7.65;2.70;;;30.70;24.50;;;;;;5052626;28;20040;-81
2022/05/20 11:35:43;;;;;;;9.35;2.17;;;30.60;24.40;;;;;;5084726;28;20036;-73
2022/05/20 11:38:41;;;;;;;10.02;2.60;;;30.60;23.10;;;;;;5082284;28;20079;-73
2022/05/20 11:41:40;;;;;;;6.13;2.90;;;30.70;23.80;;;;;;5075755;28;20023;-74
2022/05/20 11:44:19;;;;;;;8.82;2.65;;;30.90;23.00;;;;;;5075522;28;20024;-74
2022/05/20 11:46:48;;;;;;;6.38;2.72;;;30.80;22.80;;;;;;5075814;28;20353;-72
2022/05/20 11:49:48;;;;;;;10.68;3.28;;;30.70;22.90;;;;;;5075196;28;20077;-74
2022/05/20 11:52:57;;;;;;;6.57;2.25;;;30.80;22.70;;;;;;5075578;28;20066;-75
2022/05/20 11:55:28;;;;;;;14.13;3.33;;;31.10;23.00;;;;;;5075297;28;20020;-74
2022/05/20 11:58:00;;;;;;;9.35;2.97;;;31.20;23.70;;;;;;5074627;28;20039;-83
2022/05/20 12:00:28;;;;;;;4.70;2.60;;;31.40;23.00;;;;;;5075353;28;20380;-74
2022/05/20 12:02:59;;;;;;;6.28;2.67;;;31.60;24.50;;;;;;5074632;28;20480;-74
2022/05/20 12:05:29;;;;;;;8.32;2.88;;;31.50;23.80;;;;;;5058929;28;20495;-73
2022/05/20 12:07:55;;;;;;;8.82;2.78;;;31.50;23.40;;;;;;5074682;28;20024;-74
2022/05/20 12:10:32;;;;;;;6.40;2.80;;;31.40;23.90;;;;;;5074817;28;20035;-75
2022/05/20 12:13:17;;;;;;;7.65;2.70;;;31.40;25.10;;;;;;5075030;28;20093;-74
2022/05/20 12:15:46;;;;;;;9.27;3.00;;;31.40;25.40;;;;;;5075012;28;20012;-76
2022/05/20 12:24:43;;;;;;;8.05;3.33;;;31.40;26.50;;;;;;5093005;28;20526;-73
2022/05/20 12:27:22;;;;;;;8.95;3.08;;;31.60;26.70;;;;;;5074417;28;20020;-72
2022/05/20 12:30:08;;;;;;;8.55;3.40;;;31.60;25.60;;;;;;5074168;28;20034;-73
2022/05/20 12:32:37;;;;;;;4.22;2.70;;;31.60;26.20;;;;;;5073784;28;20044;-74
2022/05/20 12:35:14;;;;;;;5.55;2.60;;;31.70;25.70;;;;;;5092021;28;20024;-73
2022/05/20 12:37:43;;;;;;;7.80;3.05;;;31.50;26.50;;;;;;5092541;28;20085;-73
2022/05/20 12:40:39;;;;;;;8.27;3.00;;;31.50;25.00;;;;;;5092358;28;20020;-73
2022/05/20 12:43:09;;;;;;;6.63;3.17;;;31.70;25.80;;;;;;5092488;28;20087;-73
2022/05/20 12:45:51;;;;;;;6.45;2.95;;;31.80;25.40;;;;;;5068262;28;20028;-74
2022/05/20 12:48:22;;;;;;;12.65;2.88;;;32.00;26.60;;;;;;5080697;28;20074;-76
2022/05/20 12:51:08;;;;;;;2.83;2.50;;;32.10;25.70;;;;;;5082368;28;20124;-73
2022/05/20 12:53:37;;;;;;;6.68;3.00;;;32.30;24.00;;;;;;5068297;28;20115;-73
2022/05/20 12:56:04;;;;;;;11.20;3.50;;;32.30;25.30;;;;;;5074459;28;20017;-73
2022/05/20 12:58:32;;;;;;;7.57;2.72;;;32.50;24.60;;;;;;5074365;28;20480;-73
2022/05/20 13:01:01;;;;;;;7.20;2.45;;;32.50;24.20;;;;;;5074228;28;20495;-74
2022/05/20 13:03:29;;;;;;;7.35;2.92;;;32.70;24.70;;;;;;5074555;28;20387;-73
2022/05/20 13:06:13;;;;;;;6.50;2.65;;;32.80;24.50;;;;;;5074000;28;20111;-73
2022/05/20 13:08:51;;;;;;;8.43;2.77;;;32.60;26.00;;;;;;5092573;28;20075;-74
2022/05/20 13:11:23;;;;;;;12.07;3.53;;;32.80;25.20;;;;;;5074087;28;20097;-74
2022/05/20 13:13:58;;;;;;;6.22;2.90;;;32.90;24.50;;;;;;5075933;28;20514;-75
2022/05/20 13:16:24;;;;;;;8.18;2.70;;;33.00;23.10;;;;;;5078101;28;20114;-72
2022/05/20 13:19:08;;;;;;;7.07;3.08;;;33.00;23.30;;;;;;5077484;28;20499;-72
2022/05/20 13:22:05;;;;;;;11.60;2.97;;;32.90;21.30;;;;;;5066424;28;20051;-75
2022/05/20 13:24:35;;;;;;;9.25;2.80;;;32.20;21.90;;;;;;5037344;28;20499;-76
2022/05/20 13:27:10;;;;;;;8.05;2.78;;;32.30;21.40;;;;;;5057799;28;20135;-73
2022/05/20 13:29:36;;;;;;;12.90;2.80;;;32.40;22.60;;;;;;5058101;28;20111;-72
2022/05/20 13:32:20;;;;;;;5.20;2.75;;;32.40;23.10;;;;;;5057979;28;20040;-72
2022/05/20 13:34:51;;;;;;;5.15;2.67;;;32.70;24.30;;;;;;5057598;28;20024;-72
2022/05/20 13:37:24;;;;;;;6.70;2.55;;;32.70;22.20;;;;;;5057517;28;20123;-72
2022/05/20 13:39:53;;;;;;;9.02;2.72;;;32.90;20.90;;;;;;5058033;28;20482;-74
2022/05/20 13:42:20;;;;;;;6.70;2.70;;;32.90;20.30;;;;;;5058329;28;20346;-79
2022/05/20 13:44:46;;;;;;;6.45;2.70;;;32.60;22.00;;;;;;5075861;28;20103;-75
2022/05/20 13:50:04;;;;;;;10.50;2.85;;;32.10;23.40;;;;;;5075939;28;20034;-77
2022/05/20 13:52:31;;;;;;;9.65;3.30;;;31.70;21.70;;;;;;5075508;28;20043;-74
2022/05/20 13:55:01;;;;;;;8.75;2.70;;;31.60;21.30;;;;;;5057733;28;20021;-72